Time;durP1;ratioP1;P1;durP2;ratioP2;P2;SDS_P1;SDS_P2;PMS_P1;PMS_P2;Temp;Humidity;BMP_temperature;BMP_pressure;BME280_temperature;BME280_humidity;BME280_pressure;Samples;Min_cycle;Max_cycle;Signal;HPM_P1;HPM_P2
2022/10/22 00:01:14;;;;;;;2.80;2.60;;;23.70;70.90;;;;;;5112051;28;20454;-85
2022/10/22 00:03:42;;;;;;;2.90;2.60;;;23.70;70.90;;;;;;5113366;28;20911;-85
2022/10/22 00:06:10;;;;;;;2.77;2.57;;;23.70;71.00;;;;;;5094658;28;20478;-86
2022/10/22 00:08:38;;;;;;;5.17;2.87;;;23.70;71.00;;;;;;5112902;28;20445;-85
2022/10/22 00:11:13;;;;;;;2.90;2.70;;;23.70;71.00;;;;;;5094817;28;20456;-85
2022/10/22 00:13:42;;;;;;;2.90;2.70;;;23.70;71.00;;;;;;5094985;28;20449;-86
2022/10/22 00:16:10;;;;;;;2.30;2.10;;;23.70;70.90;;;;;;5112737;28;20458;-86
2022/10/22 00:18:39;;;;;;;3.03;2.83;;;23.70;70.90;;;;;;5113007;28;20473;-86
2022/10/22 00:21:07;;;;;;;3.10;2.90;;;23.70;71.00;;;;;;5113099;28;20454;-85
2022/10/22 00:23:36;;;;;;;2.87;2.67;;;23.70;71.00;;;;;;5112473;28;20963;-85
2022/10/22 00:26:04;;;;;;;2.50;1.97;;;23.70;71.00;;;;;;5112547;28;20508;-85
2022/10/22 00:28:34;;;;;;;2.73;2.53;;;23.70;71.00;;;;;;5112874;28;20429;-86
2022/10/22 00:31:02;;;;;;;3.53;2.60;;;23.70;71.00;;;;;;5112794;28;20441;-85
2022/10/22 00:33:30;;;;;;;2.77;2.57;;;23.60;71.00;;;;;;5094101;28;20568;-86
2022/10/22 00:35:59;;;;;;;3.00;2.70;;;23.60;71.00;;;;;;5092461;28;20466;-85
2022/10/22 00:38:27;;;;;;;5.80;2.53;;;23.60;71.00;;;;;;5093677;28;20467;-85
2022/10/22 00:40:55;;;;;;;2.73;2.53;;;23.60;71.00;;;;;;5112727;28;20792;-85
2022/10/22 00:43:23;;;;;;;3.67;2.90;;;23.60;71.10;;;;;;5112895;28;20488;-85
2022/10/22 00:45:53;;;;;;;2.60;2.40;;;23.60;71.00;;;;;;5111718;28;20794;-86
2022/10/22 00:48:25;;;;;;;2.63;2.43;;;23.60;71.00;;;;;;5112688;28;20461;-86
2022/10/22 00:50:57;;;;;;;2.17;1.97;;;23.60;71.00;;;;;;5114741;28;20425;-85
2022/10/22 00:53:29;;;;;;;3.07;2.77;;;23.60;71.00;;;;;;5116667;28;20452;-85
2022/10/22 00:55:58;;;;;;;2.47;2.27;;;23.60;71.00;;;;;;5097686;28;20813;-85
2022/10/22 00:58:29;;;;;;;3.13;2.60;;;23.60;71.10;;;;;;5116157;28;20477;-85
2022/10/22 01:00:58;;;;;;;3.13;2.80;;;23.60;71.10;;;;;;5099678;28;20462;-85
2022/10/22 01:03:26;;;;;;;3.00;2.70;;;23.60;71.10;;;;;;5114183;28;20497;-85
2022/10/22 01:05:57;;;;;;;2.53;2.33;;;23.60;71.10;;;;;;5116361;28;20439;-85
2022/10/22 01:08:30;;;;;;;2.03;1.93;;;23.60;71.10;;;;;;5116200;28;20421;-85
2022/10/22 01:11:09;;;;;;;2.93;2.10;;;23.60;71.10;;;;;;5115825;28;20485;-85
2022/10/22 01:13:46;;;;;;;2.53;2.33;;;23.60;71.10;;;;;;5116163;28;20797;-85
2022/10/22 01:16:22;;;;;;;2.50;2.30;;;23.60;71.20;;;;;;5115978;28;20420;-85
2022/10/22 01:19:00;;;;;;;3.13;2.90;;;23.60;71.20;;;;;;5115983;28;20951;-86
2022/10/22 01:21:33;;;;;;;2.70;2.50;;;23.60;71.20;;;;;;5115409;28;20446;-85
2022/10/22 01:24:35;;;;;;;2.10;2.00;;;23.50;71.20;;;;;;5116001;28;20451;-85
2022/10/22 01:27:15;;;;;;;2.90;2.70;;;23.60;71.20;;;;;;5115864;28;20504;-85
2022/10/22 01:29:50;;;;;;;2.07;1.93;;;23.60;71.20;;;;;;5115869;28;20433;-85
2022/10/22 01:32:22;;;;;;;1.97;1.87;;;23.60;71.20;;;;;;5115487;28;20447;-85
2022/10/22 01:34:53;;;;;;;2.43;2.23;;;23.50;71.20;;;;;;5116205;28;20464;-85
2022/10/22 01:37:25;;;;;;;2.50;2.30;;;23.50;71.20;;;;;;5115988;28;20778;-85
2022/10/22 01:39:54;;;;;;;3.10;2.30;;;23.50;71.20;;;;;;5115817;28;20457;-85
2022/10/22 01:42:23;;;;;;;2.03;1.90;;;23.50;71.10;;;;;;5115890;28;20441;-85
2022/10/22 01:44:52;;;;;;;2.63;2.43;;;23.50;71.20;;;;;;5115867;28;20429;-85
2022/10/22 01:47:31;;;;;;;2.33;2.13;;;23.50;71.20;;;;;;5115443;28;20447;-86
2022/10/22 01:50:16;;;;;;;2.63;2.20;;;23.50;71.20;;;;;;5115747;28;20458;-85
2022/10/22 01:52:56;;;;;;;3.30;1.80;;;23.50;71.10;;;;;;5115510;28;20430;-86
2022/10/22 01:55:30;;;;;;;2.60;2.07;;;23.50;71.20;;;;;;5097122;28;20450;-85
2022/10/22 01:58:09;;;;;;;2.73;2.40;;;23.50;71.20;;;;;;5115199;28;20429;-85
2022/10/22 02:00:44;;;;;;;2.23;1.90;;;23.50;71.20;;;;;;5115370;28;20460;-86
2022/10/22 02:03:18;;;;;;;2.13;2.03;;;23.50;71.20;;;;;;5114963;28;20438;-85
2022/10/22 02:05:54;;;;;;;2.20;2.00;;;23.50;71.20;;;;;;5115177;28;20512;-86
2022/10/22 02:08:25;;;;;;;1.80;1.70;;;23.50;71.20;;;;;;5098137;28;20447;-86
2022/10/22 02:10:54;;;;;;;5.03;2.07;;;23.50;71.20;;;;;;5110284;28;20446;-87
2022/10/22 02:13:27;;;;;;;1.80;1.70;;;23.50;71.20;;;;;;5115066;28;20506;-86
2022/10/22 02:15:57;;;;;;;2.30;2.10;;;23.50;71.20;;;;;;5115067;28;20445;-85
2022/10/22 02:18:29;;;;;;;1.57;1.47;;;23.50;71.20;;;;;;5114653;28;20592;-85
2022/10/22 02:20:59;;;;;;;2.07;1.97;;;23.50;71.20;;;;;;5114695;28;20466;-85
2022/10/22 02:23:27;;;;;;;1.77;1.57;;;23.50;71.20;;;;;;5115049;28;20478;-85
2022/10/22 02:26:01;;;;;;;4.53;2.20;;;23.50;71.20;;;;;;5113975;28;20781;-85
2022/10/22 02:28:36;;;;;;;1.87;1.77;;;23.50;71.20;;;;;;5114868;28;20483;-85
2022/10/22 02:31:11;;;;;;;2.83;2.23;;;23.50;71.20;;;;;;5114840;28;20763;-85
2022/10/22 02:33:45;;;;;;;1.80;1.70;;;23.50;71.20;;;;;;5094442;28;20486;-85
2022/10/22 02:36:14;;;;;;;2.00;1.83;;;23.50;71.20;;;;;;5094087;28;20434;-85
2022/10/22 02:38:43;;;;;;;2.03;1.93;;;23.50;71.10;;;;;;5097783;28;20945;-85
2022/10/22 02:41:11;;;;;;;1.87;1.60;;;23.50;71.10;;;;;;5114434;28;20475;-86
2022/10/22 02:43:41;;;;;;;2.30;1.57;;;23.50;71.20;;;;;;5114533;28;20440;-86
2022/10/22 02:46:12;;;;;;;1.63;1.53;;;23.40;71.10;;;;;;5114532;28;20422;-86
2022/10/22 02:48:40;;;;;;;2.30;2.10;;;23.40;71.20;;;;;;5114803;28;20446;-85
2022/10/22 02:51:08;;;;;;;1.53;1.40;;;23.40;71.20;;;;;;5114364;28;20825;-85
2022/10/22 02:53:36;;;;;;;2.00;1.83;;;23.50;71.20;;;;;;5114226;28;20925;-85
2022/10/22 02:56:05;;;;;;;2.10;1.90;;;23.40;71.10;;;;;;5113911;28;20750;-86
2022/10/22 02:58:33;;;;;;;1.50;1.40;;;23.40;71.10;;;;;;5114710;28;20912;-85
2022/10/22 03:01:01;;;;;;;1.77;1.67;;;23.40;71.10;;;;;;5112139;28;20470;-86
2022/10/22 03:03:30;;;;;;;1.57;1.47;;;23.40;71.10;;;;;;5114117;28;20442;-85
2022/10/22 03:05:59;;;;;;;1.47;1.37;;;23.40;71.10;;;;;;5114031;28;20935;-85
2022/10/22 03:08:27;;;;;;;1.67;1.57;;;23.40;71.10;;;;;;5113971;28;20469;-85
2022/10/22 03:10:55;;;;;;;1.80;1.50;;;23.40;71.00;;;;;;5113795;28;20430;-85
2022/10/22 03:13:23;;;;;;;1.47;1.37;;;23.40;71.00;;;;;;5113161;28;20437;-85
2022/10/22 03:15:51;;;;;;;1.60;1.50;;;23.40;71.00;;;;;;5110263;28;21126;-87
2022/10/22 03:18:19;;;;;;;2.17;1.40;;;23.40;71.00;;;;;;5113990;28;20488;-85
2022/10/22 03:20:49;;;;;;;1.47;1.37;;;23.40;71.00;;;;;;5113543;28;20960;-85
2022/10/22 03:23:19;;;;;;;1.80;1.60;;;23.40;71.00;;;;;;5113490;28;20430;-85
2022/10/22 03:25:49;;;;;;;1.40;1.30;;;23.40;71.10;;;;;;5113856;28;20468;-86
2022/10/22 03:28:18;;;;;;;1.67;1.57;;;23.40;71.00;;;;;;5113555;28;20446;-85
2022/10/22 03:30:46;;;;;;;1.63;1.53;;;23.40;71.10;;;;;;5113890;28;20915;-86
2022/10/22 03:33:14;;;;;;;1.50;1.40;;;23.40;71.10;;;;;;5113880;28;20921;-86
2022/10/22 03:35:45;;;;;;;1.70;1.60;;;23.30;71.10;;;;;;5111848;28;20461;-89
2022/10/22 03:38:15;;;;;;;1.77;1.67;;;23.30;71.10;;;;;;5092993;28;21079;-85
2022/10/22 03:40:45;;;;;;;1.10;1.07;;;23.30;71.00;;;;;;5092681;28;20522;-85
2022/10/22 03:43:14;;;;;;;1.40;1.30;;;23.30;71.10;;;;;;5093097;28;20420;-85
2022/10/22 03:45:42;;;;;;;1.00;1.00;;;23.40;71.10;;;;;;5093456;28;20778;-86
2022/10/22 03:48:10;;;;;;;1.30;1.20;;;23.30;71.00;;;;;;5092853;28;20426;-86
2022/10/22 03:50:38;;;;;;;1.40;1.30;;;23.30;71.00;;;;;;5086245;28;20982;-85
2022/10/22 03:53:09;;;;;;;1.40;1.30;;;23.30;71.10;;;;;;5113479;28;20436;-85
2022/10/22 03:55:40;;;;;;;1.37;1.27;;;23.30;71.10;;;;;;5113402;28;20493;-85
2022/10/22 03:58:09;;;;;;;1.23;1.23;;;23.30;71.10;;;;;;5113735;28;20777;-85
2022/10/22 04:00:37;;;;;;;1.13;1.13;;;23.30;71.10;;;;;;5113433;28;20470;-86
2022/10/22 04:03:05;;;;;;;1.93;1.50;;;23.30;71.10;;;;;;5113341;28;20454;-85
2022/10/22 04:05:34;;;;;;;4.10;1.33;;;23.30;71.00;;;;;;5113207;28;20442;-86
2022/10/22 04:08:02;;;;;;;1.17;0.93;;;23.30;71.10;;;;;;5113058;28;20454;-86
2022/10/22 04:10:30;;;;;;;1.27;1.17;;;23.30;71.10;;;;;;5113110;28;20493;-86
2022/10/22 04:12:59;;;;;;;1.43;1.40;;;23.30;71.00;;;;;;5113296;28;20900;-85
2022/10/22 04:15:27;;;;;;;1.10;1.00;;;23.30;71.00;;;;;;5113062;28;20460;-85
2022/10/22 04:17:56;;;;;;;1.47;1.37;;;23.30;71.00;;;;;;5113143;28;20950;-85
2022/10/22 04:20:24;;;;;;;1.03;0.77;;;23.30;70.90;;;;;;5112490;28;21372;-85
2022/10/22 04:22:52;;;;;;;1.00;1.00;;;23.30;70.80;;;;;;5113119;28;20460;-86
2022/10/22 04:25:20;;;;;;;1.33;1.23;;;23.30;70.80;;;;;;5114933;28;20452;-86
2022/10/22 04:27:48;;;;;;;0.90;0.90;;;23.30;70.80;;;;;;5117174;28;20453;-85
2022/10/22 04:30:18;;;;;;;1.00;1.00;;;23.30;70.90;;;;;;5116790;28;20433;-85
2022/10/22 04:32:46;;;;;;;1.30;1.20;;;23.30;70.90;;;;;;5115327;28;20931;-86
2022/10/22 04:35:14;;;;;;;0.90;0.90;;;23.30;70.90;;;;;;5112342;28;20505;-86
2022/10/22 04:37:42;;;;;;;1.10;1.10;;;23.30;70.90;;;;;;5116110;28;20480;-86
2022/10/22 04:40:12;;;;;;;1.23;1.20;;;23.30;70.90;;;;;;5116272;28;20442;-85
2022/10/22 04:42:40;;;;;;;1.27;1.17;;;23.30;70.90;;;;;;5116902;28;20427;-86
2022/10/22 04:45:09;;;;;;;1.47;1.30;;;23.30;70.90;;;;;;5117071;28;20444;-85
2022/10/22 04:47:39;;;;;;;1.30;1.00;;;23.30;70.90;;;;;;5116375;28;20428;-85
2022/10/22 04:50:08;;;;;;;1.00;0.87;;;23.30;70.80;;;;;;5115960;28;20458;-85
2022/10/22 04:52:36;;;;;;;1.10;1.10;;;23.20;70.80;;;;;;5116994;28;20440;-85
2022/10/22 04:55:05;;;;;;;0.87;0.87;;;23.20;70.80;;;;;;5116186;28;20434;-85
2022/10/22 04:57:34;;;;;;;0.87;0.87;;;23.20;70.80;;;;;;5116672;28;20954;-86
2022/10/22 05:00:02;;;;;;;1.37;1.27;;;23.20;70.80;;;;;;5098462;28;20468;-85
2022/10/22 05:02:30;;;;;;;1.23;0.93;;;23.20;70.80;;;;;;5115040;28;20477;-85
2022/10/22 05:04:59;;;;;;;1.10;1.10;;;23.20;70.70;;;;;;5116736;28;20443;-85
2022/10/22 05:07:27;;;;;;;1.10;1.00;;;23.20;70.70;;;;;;5113554;28;20442;-85
2022/10/22 05:09:55;;;;;;;0.93;0.90;;;23.20;70.80;;;;;;5107887;28;20448;-86
2022/10/22 05:12:24;;;;;;;0.73;0.73;;;23.20;70.80;;;;;;5121443;27;20960;-86
2022/10/22 05:14:53;;;;;;;0.93;0.93;;;23.20;70.80;;;;;;5116319;28;20899;-86
2022/10/22 05:17:21;;;;;;;0.90;0.90;;;23.20;70.80;;;;;;5115785;28;20450;-85
2022/10/22 05:19:49;;;;;;;0.97;0.90;;;23.20;70.80;;;;;;5116044;28;20429;-85
2022/10/22 05:22:18;;;;;;;1.03;0.97;;;23.20;70.70;;;;;;5115992;28;20476;-85
2022/10/22 05:24:47;;;;;;;3.03;1.13;;;23.20;70.80;;;;;;5116039;28;20443;-86
2022/10/22 05:27:16;;;;;;;1.00;0.90;;;23.20;70.80;;;;;;5116165;28;20818;-85
2022/10/22 05:29:49;;;;;;;1.10;1.00;;;23.20;70.80;;;;;;5097633;28;20484;-85
2022/10/22 05:32:17;;;;;;;0.70;0.70;;;23.20;70.80;;;;;;5115470;28;20484;-85
2022/10/22 05:34:45;;;;;;;1.60;1.10;;;23.20;70.80;;;;;;5115513;28;20445;-85
2022/10/22 05:37:13;;;;;;;0.93;0.93;;;23.20;70.80;;;;;;5114367;28;20437;-86
2022/10/22 05:39:42;;;;;;;1.03;1.00;;;23.20;70.80;;;;;;5094749;28;20453;-85
2022/10/22 05:42:10;;;;;;;0.93;0.83;;;23.20;70.80;;;;;;5113478;28;20839;-85
2022/10/22 05:44:39;;;;;;;1.20;1.10;;;23.20;70.80;;;;;;5098609;28;20446;-87
2022/10/22 05:47:08;;;;;;;2.97;0.90;;;23.20;70.80;;;;;;5105864;28;20602;-85
2022/10/22 05:49:36;;;;;;;1.17;0.90;;;23.20;70.90;;;;;;5115786;28;20426;-86
2022/10/22 05:52:05;;;;;;;3.20;1.07;;;23.20;70.90;;;;;;5115945;28;20438;-85
2022/10/22 05:54:33;;;;;;;1.43;0.87;;;23.20;70.90;;;;;;5115790;28;20458;-86
2022/10/22 05:57:02;;;;;;;2.17;1.00;;;23.20;71.00;;;;;;5110432;28;20456;-82
2022/10/22 05:59:30;;;;;;;2.93;1.40;;;23.20;71.10;;;;;;5115499;28;20951;-85
2022/10/22 06:01:58;;;;;;;1.00;1.00;;;23.20;71.00;;;;;;5114866;28;20464;-86
2022/10/22 06:04:27;;;;;;;1.60;1.07;;;23.20;71.00;;;;;;5114435;28;20503;-85
2022/10/22 06:06:55;;;;;;;3.13;0.70;;;23.20;71.10;;;;;;5114931;28;20423;-86
2022/10/22 06:09:28;;;;;;;1.13;0.70;;;23.20;71.00;;;;;;5113648;28;20457;-86
2022/10/22 06:11:58;;;;;;;0.70;0.70;;;23.20;71.10;;;;;;5111067;28;20457;-86
2022/10/22 06:14:31;;;;;;;1.10;0.83;;;23.20;71.00;;;;;;5115264;28;20433;-86
2022/10/22 06:17:00;;;;;;;7.97;1.10;;;23.20;71.00;;;;;;5115013;28;20433;-87
2022/10/22 06:19:30;;;;;;;1.63;0.93;;;23.20;71.10;;;;;;5114933;28;20476;-86
2022/10/22 06:21:58;;;;;;;1.40;1.10;;;23.20;71.10;;;;;;5114947;28;20499;-86
2022/10/22 06:24:26;;;;;;;2.07;1.20;;;23.20;71.10;;;;;;5113909;28;20455;-86
2022/10/22 06:26:54;;;;;;;1.20;0.80;;;23.20;71.10;;;;;;5114410;28;20428;-86
2022/10/22 06:29:22;;;;;;;1.47;0.80;;;23.20;71.10;;;;;;5114766;28;20445;-86
2022/10/22 06:31:52;;;;;;;3.33;1.10;;;23.20;71.10;;;;;;5113518;28;20434;-88
2022/10/22 06:34:20;;;;;;;2.00;1.13;;;23.20;71.10;;;;;;5111404;28;20462;-90
2022/10/22 06:36:50;;;;;;;1.90;0.83;;;23.20;71.00;;;;;;5093977;28;20458;-86
2022/10/22 06:39:18;;;;;;;0.73;0.70;;;23.20;71.00;;;;;;5093881;28;20513;-86
2022/10/22 06:41:46;;;;;;;1.80;0.80;;;23.20;71.00;;;;;;5103368;28;20469;-86
2022/10/22 06:44:18;;;;;;;1.23;1.13;;;23.20;71.00;;;;;;5114520;28;20451;-87
2022/10/22 06:46:50;;;;;;;1.67;1.00;;;23.20;71.00;;;;;;5113841;28;20455;-86
2022/10/22 06:49:20;;;;;;;1.07;1.07;;;23.20;71.00;;;;;;5113839;28;20509;-86
2022/10/22 06:51:50;;;;;;;2.40;1.63;;;23.20;71.00;;;;;;5112791;28;20438;-86
2022/10/22 06:54:18;;;;;;;1.13;1.10;;;23.20;71.00;;;;;;5114129;28;20445;-86
2022/10/22 06:56:46;;;;;;;0.80;0.80;;;23.20;71.00;;;;;;5113909;28;20454;-86
2022/10/22 06:59:14;;;;;;;1.57;0.77;;;23.20;71.00;;;;;;5113795;28;20904;-87
2022/10/22 07:01:42;;;;;;;1.27;0.60;;;23.20;71.00;;;;;;5111945;28;20468;-86
2022/10/22 07:04:11;;;;;;;1.53;0.90;;;23.20;71.00;;;;;;5112369;28;20444;-87
2022/10/22 07:06:40;;;;;;;1.37;1.00;;;23.20;71.00;;;;;;5114031;28;20932;-86
2022/10/22 07:09:08;;;;;;;0.80;0.80;;;23.20;71.00;;;;;;5113541;28;20594;-87
2022/10/22 07:11:40;;;;;;;1.80;0.83;;;23.20;70.90;;;;;;5113479;28;20448;-86
2022/10/22 07:14:08;;;;;;;2.43;0.93;;;23.20;71.00;;;;;;5113793;28;20444;-86
2022/10/22 07:16:37;;;;;;;1.30;1.20;;;23.30;71.00;;;;;;5113557;28;20520;-86
2022/10/22 07:19:05;;;;;;;1.53;0.80;;;23.20;70.90;;;;;;5113935;28;20497;-86
2022/10/22 07:21:33;;;;;;;2.00;1.10;;;23.20;70.90;;;;;;5112876;28;20445;-86
2022/10/22 07:24:03;;;;;;;0.87;0.60;;;23.30;70.90;;;;;;5113405;28;20438;-86
2022/10/22 07:26:31;;;;;;;2.20;1.47;;;23.20;70.90;;;;;;5113307;28;20437;-86
2022/10/22 07:29:00;;;;;;;1.27;0.70;;;23.30;70.90;;;;;;5111312;28;20543;-86
2022/10/22 07:31:28;;;;;;;1.47;0.90;;;23.30;71.00;;;;;;5110378;28;20813;-89
2022/10/22 07:33:57;;;;;;;4.97;1.30;;;23.20;71.20;;;;;;5111529;28;20469;-86
2022/10/22 07:36:25;;;;;;;2.43;0.97;;;23.20;71.30;;;;;;5110708;28;20922;-88
2022/10/22 07:38:57;;;;;;;4.43;0.90;;;23.30;71.40;;;;;;5112950;28;20454;-86
2022/10/22 07:41:28;;;;;;;3.30;1.80;;;23.30;71.40;;;;;;5113096;28;20433;-86
2022/10/22 07:43:57;;;;;;;1.30;1.00;;;23.30;71.30;;;;;;5112964;28;20464;-86
2022/10/22 07:46:25;;;;;;;1.83;0.90;;;23.30;71.30;;;;;;5112659;28;20453;-87
2022/10/22 07:48:54;;;;;;;3.67;1.47;;;23.30;71.30;;;;;;5113282;28;20433;-87
2022/10/22 07:51:23;;;;;;;2.37;1.70;;;23.30;71.40;;;;;;5088625;28;20967;-86
2022/10/22 07:53:51;;;;;;;5.03;1.10;;;23.30;71.30;;;;;;5110692;28;20453;-86
2022/10/22 07:56:19;;;;;;;4.57;1.43;;;23.30;71.30;;;;;;5113051;28;20425;-86
2022/10/22 07:58:48;;;;;;;4.20;1.37;;;23.30;71.30;;;;;;5112989;28;20916;-86
2022/10/22 08:01:17;;;;;;;1.60;1.07;;;23.30;71.30;;;;;;5116369;28;20440;-86
2022/10/22 08:03:45;;;;;;;1.90;1.03;;;23.30;71.30;;;;;;5116837;28;20509;-86
2022/10/22 08:06:14;;;;;;;1.37;0.73;;;23.30;71.30;;;;;;5098084;28;20446;-86
2022/10/22 08:08:44;;;;;;;3.73;1.30;;;23.30;71.20;;;;;;5116770;28;20444;-86
2022/10/22 08:11:12;;;;;;;3.90;1.30;;;23.30;71.40;;;;;;5116744;28;20437;-87
2022/10/22 08:13:40;;;;;;;2.40;1.20;;;23.30;71.30;;;;;;5109631;28;20459;-87
2022/10/22 08:16:14;;;;;;;2.57;0.90;;;23.40;71.20;;;;;;5114735;28;20445;-86
2022/10/22 08:18:42;;;;;;;2.10;0.70;;;23.40;71.30;;;;;;5116391;28;20585;-87
2022/10/22 08:21:10;;;;;;;3.27;1.13;;;23.40;71.20;;;;;;5115907;28;20523;-87
2022/10/22 08:23:39;;;;;;;1.40;0.80;;;23.30;71.30;;;;;;5116142;28;20472;-87
2022/10/22 08:26:07;;;;;;;2.07;0.93;;;23.40;71.20;;;;;;5116460;28;20522;-86
2022/10/22 08:28:35;;;;;;;3.17;1.17;;;23.40;71.20;;;;;;5116299;28;20443;-87
2022/10/22 08:31:06;;;;;;;0.97;0.97;;;23.30;71.20;;;;;;5116006;28;20549;-87
2022/10/22 08:33:37;;;;;;;1.20;1.00;;;23.30;71.20;;;;;;5116533;28;20447;-87
2022/10/22 08:36:06;;;;;;;1.10;0.77;;;23.30;71.20;;;;;;5115583;28;20568;-87
2022/10/22 08:38:35;;;;;;;0.70;0.70;;;23.40;71.20;;;;;;5105347;28;20454;-87
2022/10/22 08:41:08;;;;;;;3.90;0.90;;;23.40;71.20;;;;;;5097766;28;20435;-86
2022/10/22 08:44:14;;;;;;;2.07;1.37;;;23.40;71.10;;;;;;5105021;28;20799;-88
2022/10/22 08:47:04;;;;;;;3.33;1.00;;;23.40;71.00;;;;;;5116479;28;20443;-86
2022/10/22 08:49:38;;;;;;;1.17;1.07;;;23.40;71.00;;;;;;5112025;28;20454;-86
2022/10/22 08:52:14;;;;;;;0.93;0.93;;;23.40;71.00;;;;;;5115902;28;20441;-87
2022/10/22 08:54:50;;;;;;;1.00;0.80;;;23.40;71.00;;;;;;5115605;28;20442;-87
2022/10/22 08:57:38;;;;;;;1.13;0.97;;;23.40;71.00;;;;;;5114478;28;20448;-87
2022/10/22 09:00:12;;;;;;;1.10;1.10;;;23.40;70.90;;;;;;5115042;28;20446;-87
2022/10/22 09:02:50;;;;;;;1.70;1.00;;;23.40;70.90;;;;;;5115262;28;20455;-87
2022/10/22 09:05:32;;;;;;;2.60;1.00;;;23.50;70.80;;;;;;5115348;28;20449;-88
2022/10/22 09:08:01;;;;;;;1.37;1.13;;;23.50;70.90;;;;;;5113500;28;20449;-87
2022/10/22 09:10:34;;;;;;;1.40;1.00;;;23.50;70.90;;;;;;5115382;28;20950;-87
2022/10/22 09:13:02;;;;;;;1.20;0.80;;;23.50;70.80;;;;;;5115705;28;20440;-87
2022/10/22 09:15:31;;;;;;;2.37;1.17;;;23.50;70.80;;;;;;5115390;28;20449;-87
2022/10/22 09:18:10;;;;;;;1.43;0.90;;;23.50;70.80;;;;;;5113528;28;20485;-87
2022/10/22 09:20:49;;;;;;;1.00;0.90;;;23.50;70.80;;;;;;5113169;28;20462;-87
2022/10/22 09:23:31;;;;;;;1.63;0.87;;;23.50;70.80;;;;;;5115410;28;20474;-87
2022/10/22 09:26:00;;;;;;;1.17;0.80;;;23.50;70.70;;;;;;5112676;28;20471;-88
2022/10/22 09:28:28;;;;;;;0.70;0.70;;;23.50;70.70;;;;;;5115702;28;20446;-87
2022/10/22 09:30:56;;;;;;;1.83;0.90;;;23.60;70.70;;;;;;5114964;28;20838;-87
2022/10/22 09:33:26;;;;;;;1.10;0.90;;;23.60;70.70;;;;;;5115086;28;20483;-88
2022/10/22 09:35:58;;;;;;;0.80;0.80;;;23.60;70.90;;;;;;5115497;28;20442;-87
2022/10/22 09:38:28;;;;;;;1.13;1.00;;;23.60;70.80;;;;;;5115412;28;20433;-86
2022/10/22 09:40:58;;;;;;;1.90;1.00;;;23.60;70.80;;;;;;5114522;28;20463;-86
2022/10/22 09:43:27;;;;;;;1.07;0.90;;;23.60;70.80;;;;;;5109644;28;20476;-86
2022/10/22 09:45:59;;;;;;;1.30;0.90;;;23.60;70.80;;;;;;5114790;28;20463;-87
2022/10/22 09:48:33;;;;;;;1.73;1.60;;;23.60;70.70;;;;;;5112934;28;20446;-86
2022/10/22 09:51:10;;;;;;;2.93;1.23;;;23.60;70.70;;;;;;5114174;28;20442;-86
2022/10/22 09:53:42;;;;;;;1.40;1.30;;;23.60;70.80;;;;;;5111590;28;20456;-86
2022/10/22 09:56:19;;;;;;;3.43;1.20;;;23.60;70.90;;;;;;5113986;28;20455;-86
2022/10/22 09:58:50;;;;;;;1.10;0.90;;;23.70;70.70;;;;;;5092792;28;20461;-86
2022/10/22 10:01:21;;;;;;;1.83;1.07;;;23.70;70.90;;;;;;5103042;28;20465;-89
2022/10/22 10:03:50;;;;;;;1.33;1.23;;;23.70;70.70;;;;;;5111250;28;20510;-88
2022/10/22 10:06:22;;;;;;;1.83;1.10;;;23.70;70.70;;;;;;5096060;28;20952;-87
2022/10/22 10:08:50;;;;;;;4.67;1.40;;;23.80;70.50;;;;;;5114738;28;20442;-91
2022/10/22 10:11:22;;;;;;;2.10;1.50;;;23.80;70.50;;;;;;5137714;22;20897;31
2022/10/22 10:14:05;;;;;;;1.90;1.20;;;23.80;70.20;;;;;;5106234;22;20506;-73
2022/10/22 10:16:42;;;;;;;2.57;1.20;;;23.80;70.30;;;;;;5104753;28;20442;-73
2022/10/22 10:19:28;;;;;;;2.23;1.70;;;23.80;70.30;;;;;;5114066;28;20437;-75
2022/10/22 10:22:07;;;;;;;1.53;1.40;;;23.90;70.20;;;;;;5110606;28;20453;-75
2022/10/22 10:24:50;;;;;;;4.00;1.50;;;23.90;70.10;;;;;;5107777;28;20499;-75
2022/10/22 10:27:25;;;;;;;2.10;1.70;;;23.90;69.90;;;;;;5108099;27;20465;-75
2022/10/22 10:30:01;;;;;;;2.10;1.50;;;23.90;69.90;;;;;;5102484;28;20461;-75
2022/10/22 10:33:08;;;;;;;5.57;1.30;;;23.90;69.70;;;;;;5102251;28;20465;-76
2022/10/22 10:35:45;;;;;;;2.10;1.57;;;24.00;69.40;;;;;;5101508;27;20787;-75
2022/10/22 10:38:36;;;;;;;1.90;1.30;;;24.10;69.00;;;;;;5094636;28;20904;-75
2022/10/22 10:41:17;;;;;;;2.50;1.90;;;24.30;68.60;;;;;;5109664;28;20437;-74
2022/10/22 10:43:57;;;;;;;3.53;1.60;;;24.30;68.30;;;;;;5104167;27;21012;-74
2022/10/22 10:46:33;;;;;;;5.40;2.20;;;24.40;68.30;;;;;;5123451;27;20892;-74
2022/10/22 10:49:10;;;;;;;1.50;1.40;;;24.40;68.20;;;;;;5120800;27;20460;-75
2022/10/22 10:51:46;;;;;;;2.23;2.00;;;24.50;68.00;;;;;;5122168;27;20447;-75
2022/10/22 10:54:30;;;;;;;2.87;1.87;;;24.50;67.80;;;;;;5124725;27;20480;-74
2022/10/22 10:57:04;;;;;;;2.00;1.90;;;24.60;67.50;;;;;;5129336;27;20507;-75
2022/10/22 10:59:47;;;;;;;3.83;1.50;;;24.60;67.50;;;;;;5119385;27;20554;-75
2022/10/22 11:02:47;;;;;;;1.77;1.57;;;24.70;67.30;;;;;;5123470;27;20455;-76
2022/10/22 11:05:30;;;;;;;3.50;1.67;;;24.90;66.80;;;;;;5119931;27;20520;-75
2022/10/22 11:08:02;;;;;;;1.80;1.70;;;25.10;66.50;;;;;;5122358;27;20458;-75
2022/10/22 11:10:37;;;;;;;3.80;2.13;;;25.20;66.10;;;;;;5122047;27;20492;-74
2022/10/22 11:13:13;;;;;;;3.87;1.77;;;25.40;65.90;;;;;;5113834;27;20482;-78
2022/10/22 11:15:44;;;;;;;1.80;1.70;;;25.50;65.50;;;;;;5116790;27;20955;-76
2022/10/22 11:18:18;;;;;;;2.03;1.93;;;25.60;65.40;;;;;;5120679;27;20452;-75
2022/10/22 11:20:55;;;;;;;3.20;3.00;;;25.60;65.40;;;;;;5115636;27;20489;-78
2022/10/22 11:23:29;;;;;;;3.73;3.40;;;25.60;65.30;;;;;;5115305;27;20459;-75
2022/10/22 11:26:00;;;;;;;6.60;4.23;;;25.50;65.50;;;;;;5115625;27;20485;-74
2022/10/22 11:28:33;;;;;;;3.70;3.50;;;25.60;65.40;;;;;;5124095;27;21084;-75
2022/10/22 11:31:05;;;;;;;3.50;3.20;;;25.60;65.40;;;;;;5118333;27;20466;-74
2022/10/22 11:33:39;;;;;;;3.27;2.87;;;25.60;65.40;;;;;;5120658;27;20474;-74
2022/10/22 11:36:08;;;;;;;3.80;3.57;;;25.60;65.30;;;;;;5118640;27;20451;-74
2022/10/22 11:38:37;;;;;;;8.60;4.30;;;25.60;65.30;;;;;;5120894;27;20462;-74
2022/10/22 11:41:10;;;;;;;2.73;2.63;;;25.70;65.30;;;;;;5117503;27;20485;-74
2022/10/22 11:43:57;;;;;;;3.17;2.60;;;25.70;65.20;;;;;;5122937;27;20439;-74
2022/10/22 11:46:42;;;;;;;5.80;3.13;;;25.70;65.30;;;;;;5121415;27;20462;-74
2022/10/22 11:49:23;;;;;;;2.77;2.57;;;25.80;65.20;;;;;;5119205;27;20570;-74
2022/10/22 11:52:05;;;;;;;2.43;2.30;;;25.80;65.20;;;;;;5129075;27;20458;-74
2022/10/22 11:54:44;;;;;;;3.90;2.37;;;25.90;65.10;;;;;;5125560;27;20809;-74
2022/10/22 11:57:27;;;;;;;3.90;2.40;;;25.90;65.10;;;;;;5128368;27;20443;-74
2022/10/22 12:00:00;;;;;;;2.40;2.20;;;25.90;65.10;;;;;;5129248;28;20448;-74
2022/10/22 12:02:39;;;;;;;2.90;2.43;;;25.90;65.10;;;;;;5118206;28;20471;-74
2022/10/22 12:05:42;;;;;;;3.33;2.50;;;26.00;65.10;;;;;;5113501;28;20531;-74
2022/10/22 12:08:21;;;;;;;7.50;2.17;;;26.00;64.90;;;;;;5112485;27;20934;-74
2022/10/22 12:11:00;;;;;;;3.30;2.00;;;26.10;64.90;;;;;;5118679;28;20477;-74
2022/10/22 12:13:32;;;;;;;2.10;1.90;;;26.10;64.80;;;;;;5127198;28;20848;-74
2022/10/22 12:16:03;;;;;;;2.10;1.90;;;26.10;64.70;;;;;;5114966;28;20551;-75
2022/10/22 12:18:40;;;;;;;3.50;2.33;;;26.20;64.60;;;;;;5112534;28;20473;-75
2022/10/22 12:21:12;;;;;;;1.93;1.70;;;26.20;64.50;;;;;;5113819;28;20488;-74
2022/10/22 12:23:40;;;;;;;2.03;1.53;;;26.30;64.50;;;;;;5119013;28;20441;-74
2022/10/22 12:26:23;;;;;;;4.53;1.97;;;26.20;64.50;;;;;;5123407;28;20492;-74
2022/10/22 12:28:57;;;;;;;2.03;1.80;;;26.20;64.50;;;;;;5122578;28;20483;-75
2022/10/22 12:31:25;;;;;;;2.73;2.03;;;26.30;64.50;;;;;;5121363;28;20465;-74
2022/10/22 12:33:57;;;;;;;2.30;2.10;;;26.30;64.40;;;;;;5121058;28;20457;-74
2022/10/22 12:36:27;;;;;;;1.87;1.70;;;26.40;64.30;;;;;;5121114;28;20447;-75
2022/10/22 12:38:59;;;;;;;3.47;2.20;;;26.40;64.20;;;;;;5125170;28;20931;-74
2022/10/22 12:41:31;;;;;;;2.10;1.90;;;26.40;64.20;;;;;;5115848;28;20534;-75
2022/10/22 12:44:01;;;;;;;3.83;1.70;;;26.50;64.10;;;;;;5128481;28;20802;-74
2022/10/22 12:46:32;;;;;;;3.30;1.57;;;26.50;64.00;;;;;;5119804;27;20476;-74
2022/10/22 12:49:02;;;;;;;1.70;1.60;;;26.60;63.90;;;;;;5129657;27;20809;-75
2022/10/22 12:51:31;;;;;;;3.03;1.50;;;26.60;63.80;;;;;;5131213;27;20450;-74
2022/10/22 12:54:08;;;;;;;2.07;1.90;;;26.70;63.70;;;;;;5123157;27;20464;-75
2022/10/22 12:56:37;;;;;;;2.33;1.90;;;26.60;63.70;;;;;;5122650;27;20533;-74
2022/10/22 12:59:16;;;;;;;1.83;1.50;;;26.50;64.00;;;;;;5125144;27;20457;-75
2022/10/22 13:01:44;;;;;;;3.33;1.57;;;26.40;64.10;;;;;;5117290;27;20432;-75
2022/10/22 13:04:31;;;;;;;3.20;1.80;;;26.40;64.20;;;;;;5123897;27;20461;-75
2022/10/22 13:07:18;;;;;;;1.60;1.50;;;26.30;64.30;;;;;;5130200;27;20960;-74
2022/10/22 13:09:58;;;;;;;1.67;1.57;;;26.30;64.40;;;;;;5123338;27;20523;-75
2022/10/22 13:12:28;;;;;;;1.37;1.27;;;26.30;64.30;;;;;;5121719;27;20715;-75